Time;durP1;ratioP1;P1;durP2;ratioP2;P2;SDS_P1;SDS_P2;PMS_P1;PMS_P2;Temp;Humidity;BMP_temperature;BMP_pressure;BME280_temperature;BME280_humidity;BME280_pressure;Samples;Min_cycle;Max_cycle;Signal;HPM_P1;HPM_P2
2022/01/27 00:01:00;;;;;;;25.08;12.63;;;;;;;8.19;49.63;102555.00;5014005;28;20100;-75
2022/01/27 00:03:32;;;;;;;26.42;13.52;;;;;;;8.19;49.56;102549.59;5002774;28;20050;-76
2022/01/27 00:06:06;;;;;;;26.42;13.63;;;;;;;8.16;49.56;102552.38;4994025;28;20057;-75
2022/01/27 00:08:54;;;;;;;30.20;14.57;;;;;;;8.18;49.39;102541.53;4992313;28;20054;-75
2022/01/27 00:11:21;;;;;;;29.73;15.73;;;;;;;8.20;49.28;102521.63;4992054;28;20042;-75
2022/01/27 00:13:55;;;;;;;30.92;16.90;;;;;;;8.18;49.13;102544.22;4992216;28;20065;-75
2022/01/27 00:16:26;;;;;;;28.52;15.95;;;;;;;8.13;49.09;102544.38;4990166;28;20050;-75
2022/01/27 00:18:53;;;;;;;29.45;16.13;;;;;;;8.08;49.16;102540.91;4992741;28;20160;-75
2022/01/27 00:21:22;;;;;;;27.80;14.82;;;;;;;8.10;49.18;102547.16;4994580;28;20474;-75
2022/01/27 00:23:49;;;;;;;29.17;15.05;;;;;;;8.04;49.02;102539.25;4982920;28;20133;-75
2022/01/27 00:26:17;;;;;;;29.25;15.43;;;;;;;8.02;49.19;102546.50;4990198;28;20142;-76
2022/01/27 00:28:45;;;;;;;27.38;14.65;;;;;;;8.01;49.06;102545.63;4992022;28;20081;-76
2022/01/27 00:31:13;;;;;;;28.63;15.13;;;;;;;8.01;49.03;102547.44;5007300;28;20057;-75
2022/01/27 00:33:43;;;;;;;30.75;15.85;;;;;;;8.00;48.84;102529.44;5017488;28;20049;-75
2022/01/27 00:36:10;;;;;;;28.70;14.35;;;;;;;7.94;49.20;102546.72;5010124;28;20050;-75
2022/01/27 00:38:36;;;;;;;31.73;16.05;;;;;;;7.94;48.88;102526.91;5011579;28;20054;-75
2022/01/27 00:41:03;;;;;;;28.77;15.15;;;;;;;7.93;49.16;102522.44;5010729;28;20062;-75
2022/01/27 00:43:30;;;;;;;29.42;14.80;;;;;;;7.90;49.18;102525.25;5011548;28;20100;-75
2022/01/27 00:45:57;;;;;;;29.33;14.65;;;;;;;7.89;49.05;102510.84;5008970;28;20049;-75
2022/01/27 00:48:24;;;;;;;28.75;14.15;;;;;;;7.86;49.29;102510.91;5009796;28;20136;-75
2022/01/27 00:51:01;;;;;;;29.55;14.50;;;;;;;7.86;49.26;102508.22;5009782;28;20112;-75
2022/01/27 00:53:39;;;;;;;26.08;13.23;;;;;;;7.85;49.19;102492.03;5001680;28;20409;-75
2022/01/27 00:56:18;;;;;;;25.70;13.20;;;;;;;7.85;49.22;102486.63;5010419;28;20077;-75
2022/01/27 01:01:17;;;;;;;28.20;13.73;;;;;;;7.89;49.16;102461.28;5011082;28;20061;-75
2022/01/27 01:03:47;;;;;;;30.33;14.73;;;;;;;7.89;49.47;102463.97;5010041;28;20054;-75
2022/01/27 01:19:45;;;;;;;28.00;13.60;;;;;;;7.83;49.40;102446.09;5009887;28;20099;-76
2022/01/27 01:33:05;;;;;;;24.95;12.15;;;;;;;7.84;49.33;102445.16;4998519;28;20049;-76
2022/01/27 01:38:22;;;;;;;23.58;11.60;;;;;;;7.91;49.21;102449.47;4999841;28;20050;-76
2022/01/27 01:40:52;;;;;;;30.80;14.32;;;;;;;7.91;49.20;102435.03;5014007;28;20466;-76
2022/01/27 01:43:20;;;;;;;27.45;12.90;;;;;;;7.91;49.38;102418.81;5010358;28;20046;-76
2022/01/27 01:45:48;;;;;;;31.02;14.27;;;;;;;7.95;49.07;102423.22;5008646;28;20082;-76
2022/01/27 01:48:16;;;;;;;31.42;13.95;;;;;;;7.92;49.21;102416.06;5004713;28;20060;-74
2022/01/27 01:50:45;;;;;;;30.25;14.00;;;;;;;7.91;49.11;102430.53;5009829;28;20141;-74
2022/01/27 01:53:12;;;;;;;27.48;13.40;;;;;;;7.92;49.25;102435.00;5009624;28;20850;-74
2022/01/27 01:55:39;;;;;;;27.05;12.77;;;;;;;7.91;49.29;102435.03;5008748;28;20062;-74
2022/01/27 01:58:06;;;;;;;28.60;13.98;;;;;;;7.91;49.28;102421.53;5015547;28;20496;-74
2022/01/27 02:00:32;;;;;;;32.60;15.52;;;;;;;7.92;49.18;102426.91;5009958;28;20440;-76
2022/01/27 02:02:59;;;;;;;26.92;12.70;;;;;;;7.92;49.50;102436.81;5010764;28;20133;-75
2022/01/27 02:05:34;;;;;;;27.75;13.63;;;;;;;7.92;49.11;102424.19;5004047;28;20046;-75
2022/01/27 02:19:23;;;;;;;25.88;12.35;;;;;;;7.89;49.44;102396.38;4987010;28;20140;-75
2022/01/27 02:21:53;;;;;;;28.20;13.05;;;;;;;7.90;49.42;102393.63;5011792;28;20082;-75
2022/01/27 02:24:22;;;;;;;24.77;11.93;;;;;;;7.92;49.41;102388.16;5013431;28;20139;-75
2022/01/27 02:26:49;;;;;;;26.13;13.07;;;;;;;7.92;49.36;102380.91;5010840;28;20097;-75
2022/01/27 02:29:18;;;;;;;25.35;12.88;;;;;;;7.93;49.39;102380.00;5012808;28;20050;-75
2022/01/27 02:31:45;;;;;;;28.02;12.95;;;;;;;7.94;49.41;102375.47;5012312;28;20096;-75
2022/01/27 02:34:12;;;;;;;28.33;12.95;;;;;;;7.95;49.57;102386.25;5013121;28;20061;-76
2022/01/27 02:36:39;;;;;;;28.77;13.35;;;;;;;7.95;49.52;102390.78;5013507;28;20591;-75
2022/01/27 02:39:08;;;;;;;27.33;11.57;;;;;;;7.97;49.63;102380.78;5012001;28;20453;-76
2022/01/27 02:41:44;;;;;;;26.80;13.15;;;;;;;7.99;49.35;102368.09;5014129;28;20058;-75
2022/01/27 02:44:29;;;;;;;27.50;12.73;;;;;;;7.97;49.63;102349.22;4999175;28;20137;-75
2022/01/27 02:46:56;;;;;;;26.80;12.02;;;;;;;7.96;49.69;102355.56;5011866;28;20133;-76
2022/01/27 02:49:23;;;;;;;27.25;13.18;;;;;;;7.98;49.56;102358.22;5013000;28;20485;-75
2022/01/27 02:51:51;;;;;;;25.17;12.80;;;;;;;8.00;49.43;102370.75;5013911;28;20073;-75
2022/01/27 02:54:19;;;;;;;25.65;13.02;;;;;;;8.00;49.33;102369.84;5012460;28;20728;-75
2022/01/27 02:56:47;;;;;;;26.70;13.10;;;;;;;8.00;49.74;102373.44;5015464;28;21518;-75
2022/01/27 02:59:15;;;;;;;26.77;12.13;;;;;;;8.02;49.57;102368.88;5013424;28;20042;-75
2022/01/27 03:01:46;;;;;;;25.05;11.93;;;;;;;8.03;49.06;102364.38;5013422;28;20115;-75
2022/01/27 03:04:13;;;;;;;27.80;12.77;;;;;;;7.99;49.42;102355.44;5016289;28;20060;-75
2022/01/27 03:06:41;;;;;;;26.30;12.15;;;;;;;8.01;49.71;102355.41;5009602;28;20049;-75
2022/01/27 03:09:07;;;;;;;28.45;12.27;;;;;;;8.02;49.22;102340.94;5013773;28;20705;-76
2022/01/27 03:11:44;;;;;;;26.38;13.02;;;;;;;8.05;49.58;102334.56;5011924;28;20045;-75
2022/01/27 03:14:13;;;;;;;25.85;12.82;;;;;;;8.02;49.39;102333.72;5009568;28;20060;-75
2022/01/27 03:16:40;;;;;;;25.83;12.40;;;;;;;8.00;49.48;102330.19;5021942;28;20117;-76
2022/01/27 03:19:07;;;;;;;25.92;12.20;;;;;;;8.02;49.51;102335.53;5006956;28;20046;-76
2022/01/27 03:21:35;;;;;;;24.48;11.60;;;;;;;8.02;49.46;102341.84;5013563;28;20100;-75
2022/01/27 03:24:01;;;;;;;24.23;11.88;;;;;;;8.01;49.52;102340.06;5012946;28;20057;-75
2022/01/27 03:26:28;;;;;;;24.98;11.52;;;;;;;8.03;49.48;102329.19;4988121;28;20142;-75
2022/01/27 03:28:55;;;;;;;25.60;12.80;;;;;;;8.03;49.46;102313.84;4991633;28;20054;-75
2022/01/27 03:31:22;;;;;;;28.45;13.02;;;;;;;8.02;49.55;102306.69;4986545;28;20050;-76
2022/01/27 03:33:49;;;;;;;25.50;12.48;;;;;;;8.05;49.63;102307.53;4993467;28;20092;-75
2022/01/27 03:36:16;;;;;;;27.15;13.23;;;;;;;8.03;49.29;102294.03;5009778;28;20088;-75
2022/01/27 03:38:43;;;;;;;26.45;11.77;;;;;;;8.05;49.77;102291.28;5012475;28;20096;-75
2022/01/27 03:41:11;;;;;;;25.52;11.95;;;;;;;8.03;49.55;102292.22;5006561;28;20081;-75
2022/01/27 03:43:39;;;;;;;23.15;11.48;;;;;;;8.06;49.60;102295.78;5012326;28;20103;-75
2022/01/27 03:46:06;;;;;;;25.75;12.75;;;;;;;8.07;49.56;102295.69;5009250;28;20608;-75
2022/01/27 03:48:33;;;;;;;23.20;11.50;;;;;;;8.06;49.60;102310.19;5012127;28;20042;-75
2022/01/27 03:51:00;;;;;;;21.70;10.80;;;;;;;8.05;49.87;102302.09;5011795;28;20136;-75
2022/01/27 03:53:27;;;;;;;24.25;11.30;;;;;;;8.07;49.93;102309.22;5012881;28;20077;-75
2022/01/27 03:55:53;;;;;;;22.38;11.32;;;;;;;8.08;49.46;102304.69;5010614;28;20632;-75
2022/01/27 03:58:20;;;;;;;23.38;11.23;;;;;;;8.08;49.55;102299.28;5014509;28;20050;-75
2022/01/27 04:00:47;;;;;;;21.45;10.35;;;;;;;8.09;49.71;102301.94;5011494;28;20394;-75
2022/01/27 04:03:16;;;;;;;21.50;10.43;;;;;;;8.10;49.84;102301.00;5012489;28;20470;-75
2022/01/27 04:05:50;;;;;;;21.10;9.90;;;;;;;8.11;49.51;102302.78;5008909;28;20444;-75
2022/01/27 04:08:17;;;;;;;19.95;9.85;;;;;;;8.14;49.99;102301.81;5005115;28;20069;-76
2022/01/27 04:10:44;;;;;;;21.95;10.52;;;;;;;8.16;49.62;102311.63;5011144;28;20129;-76
2022/01/27 04:13:11;;;;;;;21.55;9.10;;;;;;;8.17;49.77;102293.56;5011527;28;20644;-75
2022/01/27 04:15:43;;;;;;;22.55;11.05;;;;;;;8.18;49.96;102290.81;5009431;28;20054;-75
2022/01/27 04:18:10;;;;;;;20.77;10.90;;;;;;;8.20;49.61;102277.25;5012487;28;20096;-74
2022/01/27 04:20:38;;;;;;;22.02;10.23;;;;;;;8.20;49.86;102261.91;5007537;28;20056;-76
2022/01/27 04:23:05;;;;;;;20.60;10.55;;;;;;;8.22;50.02;102269.97;5012509;28;20049;-75
2022/01/27 04:25:33;;;;;;;21.08;10.27;;;;;;;8.23;49.81;102266.31;5010845;28;20066;-75
2022/01/27 04:28:04;;;;;;;22.25;11.10;;;;;;;8.25;49.70;102264.44;4992380;28;20085;-75
2022/01/27 04:30:31;;;;;;;21.17;10.52;;;;;;;8.25;50.03;102267.13;4992045;28;20082;-74
2022/01/27 04:33:01;;;;;;;19.58;9.25;;;;;;;8.26;49.96;102269.78;4996039;28;20478;-75
2022/01/27 04:35:31;;;;;;;21.20;10.18;;;;;;;8.26;49.67;102275.19;4993209;28;20082;-75
2022/01/27 04:48:19;;;;;;;23.83;9.77;;;;;;;8.29;49.59;102247.16;4992480;28;20129;-74
2022/01/27 04:50:46;;;;;;;22.55;10.63;;;;;;;8.30;49.77;102238.13;5016071;28;20137;-75
2022/01/27 04:53:21;;;;;;;24.48;10.85;;;;;;;8.31;49.78;102231.81;5005711;28;20472;-76
2022/01/27 04:56:12;;;;;;;22.52;9.57;;;;;;;8.29;49.86;102226.41;5009184;28;20413;-75
2022/01/27 04:58:45;;;;;;;21.88;9.57;;;;;;;8.34;49.67;102210.91;5010204;28;20132;-75
2022/01/27 05:01:13;;;;;;;20.75;10.48;;;;;;;8.31;49.64;102207.44;5010165;28;20112;-75
2022/01/27 05:03:45;;;;;;;22.88;10.13;;;;;;;8.34;49.67;102204.59;4998524;28;20049;-75
2022/01/27 05:06:13;;;;;;;22.67;10.02;;;;;;;8.34;49.74;102188.38;5004808;28;20543;-75
2022/01/27 05:08:41;;;;;;;21.67;10.35;;;;;;;8.33;49.72;102183.91;5009379;28;20042;-75
2022/01/27 05:13:50;;;;;;;20.50;10.30;;;;;;;8.33;49.77;102178.50;5004970;28;20077;-75
2022/01/27 05:16:16;;;;;;;22.55;10.10;;;;;;;8.34;49.78;102177.56;5012414;28;20077;-74
2022/01/27 05:18:43;;;;;;;20.73;10.35;;;;;;;8.34;50.02;102180.25;5006288;28;20173;-75
2022/01/27 05:21:10;;;;;;;23.48;11.20;;;;;;;8.36;49.55;102183.81;5008579;28;20049;-75
2022/01/27 05:23:37;;;;;;;22.95;10.52;;;;;;;8.34;49.79;102173.03;5016525;28;20198;-75
2022/01/27 05:26:04;;;;;;;22.88;10.80;;;;;;;8.34;49.62;102173.03;4989457;28;20065;-75
2022/01/27 05:28:30;;;;;;;20.38;9.63;;;;;;;8.36;49.96;102167.56;4997076;28;20042;-75
2022/01/27 05:30:57;;;;;;;18.90;10.10;;;;;;;8.36;49.90;102162.16;5004251;28;20093;-74
2022/01/27 05:33:23;;;;;;;20.35;10.70;;;;;;;8.37;49.91;102181.03;4981824;28;20130;-75
2022/01/27 05:35:50;;;;;;;21.00;10.07;;;;;;;8.38;49.93;102180.09;5002595;28;20147;-75
2022/01/27 05:38:17;;;;;;;21.25;10.27;;;;;;;8.40;49.97;102171.91;4998385;28;20073;-75
2022/01/27 05:40:44;;;;;;;21.63;10.70;;;;;;;8.41;49.76;102162.84;4994711;28;20121;-75
2022/01/27 05:43:12;;;;;;;21.80;10.07;;;;;;;8.41;50.04;102162.84;4991257;28;20470;-75
2022/01/27 05:45:38;;;;;;;17.75;8.93;;;;;;;8.43;49.93;102163.69;4988958;28;20081;-75
2022/01/27 05:48:07;;;;;;;26.35;11.43;;;;;;;8.44;49.93;102168.16;4990516;28;20047;-75
2022/01/27 05:50:34;;;;;;;19.42;9.57;;;;;;;8.46;49.91;102152.75;4985971;28;20056;-75
2022/01/27 05:53:02;;;;;;;21.15;10.02;;;;;;;8.47;49.93;102148.22;4991008;28;20085;-75
2022/01/27 05:55:29;;;;;;;22.38;10.13;;;;;;;8.47;49.91;102143.69;4988241;28;20048;-75
2022/01/27 05:57:56;;;;;;;17.25;8.70;;;;;;;8.49;50.15;102143.63;4988815;28;20480;-75
2022/01/27 06:00:22;;;;;;;18.33;9.52;;;;;;;8.50;49.88;102130.03;4989598;28;20464;-75
2022/01/27 06:02:49;;;;;;;17.73;9.07;;;;;;;8.51;50.18;102128.22;4990553;28;20061;-75
2022/01/27 06:05:17;;;;;;;20.38;9.90;;;;;;;8.54;49.94;102125.41;4988074;28;20141;-75
2022/01/27 06:07:43;;;;;;;21.02;9.38;;;;;;;8.53;49.91;102129.94;4979871;28;20185;-76
2022/01/27 06:10:10;;;;;;;20.02;9.50;;;;;;;8.56;50.08;102131.66;4988985;28;20053;-75
2022/01/27 06:12:52;;;;;;;21.90;10.10;;;;;;;8.59;50.18;102126.09;4990904;28;20113;-75
2022/01/27 06:15:20;;;;;;;19.98;9.90;;;;;;;8.59;50.17;102113.44;4998411;28;20088;-75
2022/01/27 06:17:47;;;;;;;20.42;9.32;;;;;;;8.59;49.98;102105.31;5008508;28;20046;-75
2022/01/27 06:20:16;;;;;;;18.92;9.65;;;;;;;8.61;50.09;102100.75;5008622;28;20084;-75
2022/01/27 06:22:43;;;;;;;18.98;9.70;;;;;;;8.63;49.89;102096.16;5009714;28;20046;-75
2022/01/27 06:25:12;;;;;;;19.88;9.80;;;;;;;8.65;50.17;102099.66;5008342;28;20104;-75
2022/01/27 06:27:39;;;;;;;17.73;9.15;;;;;;;8.66;50.14;102092.44;5005451;28;20046;-75
2022/01/27 06:30:08;;;;;;;21.58;10.20;;;;;;;8.70;50.12;102091.38;5008343;28;20073;-75
2022/01/27 06:32:35;;;;;;;17.30;9.30;;;;;;;8.69;50.10;102079.66;5008646;28;20046;-76
2022/01/27 06:35:03;;;;;;;18.20;9.27;;;;;;;8.73;50.26;102078.59;5009215;28;20061;-76
2022/01/27 06:37:35;;;;;;;18.30;9.50;;;;;;;8.77;50.18;102069.41;5008135;28;20077;-76
2022/01/27 06:40:06;;;;;;;16.05;9.27;;;;;;;8.79;50.35;102074.78;5007936;28;20062;-76
2022/01/27 06:42:33;;;;;;;17.95;9.07;;;;;;;8.81;50.26;102066.59;5011099;28;20595;-76
2022/01/27 06:45:00;;;;;;;20.80;9.15;;;;;;;8.82;50.32;102057.50;5008493;28;20133;-76
2022/01/27 06:47:26;;;;;;;15.73;8.90;;;;;;;8.85;50.41;102054.69;5009877;28;20049;-77
2022/01/27 06:49:53;;;;;;;17.00;8.88;;;;;;;8.87;50.16;102060.91;5009165;28;20074;-76
2022/01/27 06:52:21;;;;;;;17.33;8.85;;;;;;;8.88;50.47;102052.75;5011321;28;20096;-76
2022/01/27 06:54:49;;;;;;;17.58;9.48;;;;;;;8.91;50.38;102051.72;5012878;28;20085;-76
2022/01/27 06:57:16;;;;;;;18.58;10.02;;;;;;;8.97;50.29;102051.47;5000396;28;20119;-76
2022/01/27 06:59:43;;;;;;;16.95;9.35;;;;;;;8.97;50.30;102046.06;5011317;28;20429;-77
2022/01/27 07:02:09;;;;;;;19.48;9.38;;;;;;;8.99;50.35;102052.28;5013262;28;20137;-76
2022/01/27 07:04:37;;;;;;;20.33;9.85;;;;;;;9.00;50.51;102041.38;5012397;28;20054;-76
2022/01/27 07:07:04;;;;;;;17.30;8.55;;;;;;;9.05;50.42;102044.81;5011036;28;20112;-76
2022/01/27 07:09:30;;;;;;;18.95;9.40;;;;;;;9.05;50.33;102050.22;5010491;28;20077;-77
2022/01/27 07:11:57;;;;;;;16.17;9.05;;;;;;;9.06;50.57;102051.97;5015174;28;20124;-76
2022/01/27 07:14:24;;;;;;;17.65;9.43;;;;;;;9.09;50.33;102054.56;5012922;28;20061;-76
2022/01/27 07:16:50;;;;;;;16.45;9.70;;;;;;;9.12;50.50;102049.03;5012267;28;20121;-76
2022/01/27 07:19:17;;;;;;;24.90;10.23;;;;;;;9.16;50.58;102050.63;5011448;28;20422;-76
2022/01/27 07:21:45;;;;;;;18.88;9.98;;;;;;;9.18;50.57;102055.09;5012887;28;20058;-76
2022/01/27 07:24:11;;;;;;;18.55;9.77;;;;;;;9.19;50.56;102038.78;5010007;28;20045;-76
2022/01/27 07:26:38;;;;;;;19.13;10.25;;;;;;;9.22;50.47;102033.25;5012123;28;20053;-76
2022/01/27 07:29:04;;;;;;;22.35;10.90;;;;;;;9.23;50.55;102026.88;5010784;28;20559;-76
2022/01/27 07:31:32;;;;;;;17.83;9.70;;;;;;;9.26;50.45;102047.53;5008364;28;20149;-76
2022/01/27 07:33:59;;;;;;;18.30;9.65;;;;;;;9.25;50.48;102030.41;5014216;28;20496;-76
2022/01/27 07:36:26;;;;;;;19.20;10.20;;;;;;;9.29;50.70;102023.03;5007113;28;20108;-75
2022/01/27 07:38:52;;;;;;;18.25;9.75;;;;;;;9.29;50.60;102015.78;5012292;28;20083;-76
2022/01/27 07:41:19;;;;;;;19.05;10.30;;;;;;;9.29;50.79;102004.94;5012040;28;20061;-76
2022/01/27 07:43:46;;;;;;;19.70;10.50;;;;;;;9.34;50.62;102018.28;5011847;28;20505;-76
2022/01/27 07:46:13;;;;;;;18.25;9.88;;;;;;;9.34;50.68;102005.63;5010611;28;20065;-76
2022/01/27 07:48:40;;;;;;;19.55;10.27;;;;;;;9.36;50.65;102003.72;5012867;28;20045;-76
2022/01/27 07:51:08;;;;;;;21.13;10.63;;;;;;;9.39;50.90;101989.13;5011021;28;20240;-76
2022/01/27 07:53:36;;;;;;;19.52;10.18;;;;;;;9.39;50.64;101997.28;5010077;28;20141;-76
2022/01/27 07:56:23;;;;;;;21.35;10.10;;;;;;;9.39;50.81;102011.72;5010824;28;20385;-76
2022/01/27 07:58:50;;;;;;;21.58;11.63;;;;;;;9.43;50.67;102017.88;5011237;28;20046;-76
2022/01/27 08:01:16;;;;;;;21.75;11.10;;;;;;;9.43;50.81;102032.31;5011027;28;20054;-76
2022/01/27 08:03:43;;;;;;;19.65;9.70;;;;;;;9.44;50.79;102025.97;5008568;28;20050;-76
2022/01/27 08:06:10;;;;;;;22.25;10.88;;;;;;;9.47;50.69;102019.53;5008403;28;20065;-77
2022/01/27 08:08:37;;;;;;;19.58;11.00;;;;;;;9.49;50.56;102023.03;5011830;28;20077;-76
2022/01/27 08:11:03;;;;;;;20.33;10.60;;;;;;;9.50;50.81;102009.41;5011329;28;20054;-76
2022/01/27 08:13:30;;;;;;;18.65;10.27;;;;;;;9.51;50.83;102011.19;5010659;28;20077;-77
2022/01/27 08:15:57;;;;;;;21.25;10.73;;;;;;;9.53;50.97;102008.41;5008788;28;20062;-76
2022/01/27 08:18:43;;;;;;;20.75;10.15;;;;;;;9.54;50.92;102035.47;5019157;28;20046;-77
2022/01/27 08:21:10;;;;;;;20.50;10.55;;;;;;;9.55;50.80;102028.22;4998026;28;20111;-77
2022/01/27 08:23:38;;;;;;;20.75;11.13;;;;;;;9.58;51.22;102028.06;5012182;28;20099;-77
2022/01/27 08:26:08;;;;;;;21.70;11.10;;;;;;;9.58;51.08;102024.47;5008338;28;20100;-77
2022/01/27 08:28:41;;;;;;;20.33;10.60;;;;;;;9.60;51.10;102025.28;5010730;28;20050;-76
2022/01/27 08:31:08;;;;;;;20.50;11.02;;;;;;;9.61;51.37;102021.63;5004992;28;20133;-76
2022/01/27 08:33:38;;;;;;;22.35;11.15;;;;;;;9.61;51.33;102014.38;5006303;28;20124;-76
2022/01/27 08:36:05;;;;;;;23.17;12.43;;;;;;;9.67;51.76;102014.09;5007181;28;20642;-75
2022/01/27 08:38:32;;;;;;;24.20;12.00;;;;;;;9.66;51.55;102012.31;5004013;28;20115;-76
2022/01/27 08:40:59;;;;;;;22.90;12.10;;;;;;;9.64;51.81;102014.22;5008796;28;20531;-76
2022/01/27 08:43:26;;;;;;;20.35;11.10;;;;;;;9.63;51.91;102014.31;5010448;28;20601;-76
2022/01/27 08:45:53;;;;;;;20.20;11.38;;;;;;;9.64;51.93;102018.75;5008372;28;20054;-76
2022/01/27 08:48:21;;;;;;;24.75;12.45;;;;;;;9.64;52.05;102026.91;5010478;28;20038;-75
2022/01/27 08:50:53;;;;;;;19.52;10.13;;;;;;;9.63;52.16;102033.28;5008187;28;20455;-76
2022/01/27 08:53:40;;;;;;;20.35;10.23;;;;;;;9.60;52.35;102026.16;5008813;28;20050;-76
2022/01/27 08:56:09;;;;;;;22.95;12.15;;;;;;;9.62;52.26;102023.41;5009678;28;20406;-76
2022/01/27 08:58:35;;;;;;;18.05;10.00;;;;;;;9.61;52.12;102021.63;5010692;28;20043;-75
2022/01/27 09:01:03;;;;;;;20.20;10.60;;;;;;;9.60;52.21;102019.84;4992374;28;20085;-75
2022/01/27 09:03:30;;;;;;;20.38;10.50;;;;;;;9.60;52.41;102015.31;5011055;28;20053;-75
2022/01/27 09:05:57;;;;;;;22.65;11.38;;;;;;;9.62;52.28;102015.25;4992060;28;20057;-76
2022/01/27 09:08:23;;;;;;;23.27;10.80;;;;;;;9.63;52.57;102011.59;4991629;28;20125;-76
2022/01/27 09:10:50;;;;;;;18.70;10.82;;;;;;;9.61;52.50;102021.63;4988907;28;20107;-76
2022/01/27 09:13:18;;;;;;;20.80;10.20;;;;;;;9.62;52.61;102016.16;4990910;28;20106;-75
2022/01/27 09:15:47;;;;;;;24.30;12.65;;;;;;;9.63;52.60;102008.91;4988338;28;20161;-75
2022/01/27 09:18:14;;;;;;;22.35;12.50;;;;;;;9.62;52.86;101999.88;4990636;28;20739;-76
2022/01/27 09:20:42;;;;;;;22.80;13.15;;;;;;;9.66;52.91;101995.19;4989517;28;20474;-76
2022/01/27 09:23:13;;;;;;;23.23;12.00;;;;;;;9.62;52.98;101996.28;4992259;28;20050;-75
2022/01/27 09:25:44;;;;;;;22.58;11.40;;;;;;;9.62;53.07;102002.59;4988869;28;20054;-74
2022/01/27 09:28:14;;;;;;;22.08;11.65;;;;;;;9.64;53.07;102007.91;4989422;28;20081;-76
2022/01/27 09:30:42;;;;;;;20.63;11.63;;;;;;;9.62;53.33;101999.88;4986430;28;20056;-76
2022/01/27 09:33:10;;;;;;;23.27;11.40;;;;;;;9.62;52.95;102001.69;4989842;28;20057;-76
2022/01/27 09:35:36;;;;;;;20.20;11.25;;;;;;;9.60;53.29;102004.47;4987872;28;20528;-76
2022/01/27 09:38:03;;;;;;;20.77;10.88;;;;;;;9.62;53.21;102010.72;4991213;28;20050;-76
2022/01/27 09:40:30;;;;;;;20.55;10.45;;;;;;;9.63;53.44;102011.59;4989842;28;20042;-76
2022/01/27 09:42:58;;;;;;;18.85;10.85;;;;;;;9.65;53.34;102004.25;4984827;28;20146;-75
2022/01/27 09:45:25;;;;;;;22.15;11.02;;;;;;;9.63;53.52;102014.31;4988717;28;20085;-75
2022/01/27 09:47:56;;;;;;;21.45;10.55;;;;;;;9.65;53.58;102009.69;5001146;28;20394;-75
2022/01/27 09:52:55;;;;;;;19.52;10.95;;;;;;;9.67;53.57;102005.06;4990866;28;20616;-75
2022/01/27 09:55:22;;;;;;;19.52;9.82;;;;;;;9.68;53.79;102007.72;4993737;28;20611;-75
2022/01/27 09:57:53;;;;;;;20.00;10.32;;;;;;;9.70;53.79;102010.38;4992395;28;20452;-75
2022/01/27 10:00:21;;;;;;;18.38;9.88;;;;;;;9.68;53.65;102007.72;4988757;28;20097;-76
2022/01/27 10:03:08;;;;;;;18.50;9.85;;;;;;;9.69;54.40;102008.59;4990468;28;20104;-76
2022/01/27 10:05:36;;;;;;;21.35;10.82;;;;;;;9.69;54.18;102003.19;4987576;28;20136;-75
2022/01/27 10:08:07;;;;;;;21.77;10.50;;;;;;;9.69;54.14;101995.94;4990156;28;20141;-74
2022/01/27 10:10:36;;;;;;;19.30;9.98;;;;;;;9.71;53.83;101993.16;4998344;28;20697;-75
2022/01/27 10:13:05;;;;;;;16.42;9.57;;;;;;;9.71;53.99;101996.75;5009126;28;20049;-75
2022/01/27 10:15:41;;;;;;;16.83;8.68;;;;;;;9.70;54.12;102000.41;5008116;28;20057;-75
2022/01/27 10:18:25;;;;;;;16.92;9.52;;;;;;;9.75;54.10;101989.34;5009026;28;20096;-74
2022/01/27 10:21:05;;;;;;;17.73;9.02;;;;;;;9.74;54.56;101988.47;5014645;28;20057;-76
2022/01/27 10:23:34;;;;;;;16.67;8.52;;;;;;;9.74;54.23;101998.44;5006450;28;20706;-76
2022/01/27 10:26:12;;;;;;;13.88;8.20;;;;;;;9.76;54.19;101986.56;5006595;28;20061;-75
2022/01/27 10:31:23;;;;;;;15.43;8.88;;;;;;;9.76;54.50;101991.09;5010173;28;20069;-75
2022/01/27 10:33:59;;;;;;;16.45;8.45;;;;;;;9.78;54.62;101981.97;5010870;28;20045;-75
2022/01/27 10:36:27;;;;;;;14.70;7.75;;;;;;;9.78;54.37;101981.97;5016679;28;20168;-75
2022/01/27 10:38:59;;;;;;;14.07;7.85;;;;;;;9.80;54.67;101988.16;5017165;28;20057;-74
2022/01/27 10:41:29;;;;;;;14.60;9.03;;;;;;;9.80;54.38;101984.59;5015156;28;20076;-75
2022/01/27 10:44:12;;;;;;;12.98;7.68;;;;;;;9.85;54.59;101978.00;5017882;28;20317;-74
2022/01/27 10:46:58;;;;;;;13.98;7.82;;;;;;;9.84;54.38;101983.50;5010545;28;20065;-75
2022/01/27 10:49:31;;;;;;;12.50;7.35;;;;;;;9.85;55.07;101979.84;5023354;28;20654;-75
2022/01/27 10:51:58;;;;;;;16.10;8.32;;;;;;;9.84;55.30;101980.78;5013372;28;20077;-74
2022/01/27 10:54:42;;;;;;;11.80;6.60;;;;;;;9.86;54.69;101971.63;5014898;28;20065;-74
2022/01/27 10:57:12;;;;;;;11.65;6.93;;;;;;;9.89;54.68;101981.44;5020084;28;20108;-75
2022/01/27 10:59:40;;;;;;;11.63;7.18;;;;;;;9.90;54.57;101967.81;5011480;28;20437;-75
2022/01/27 11:02:12;;;;;;;13.07;6.80;;;;;;;9.92;54.95;101967.75;5013772;28;20085;-74
2022/01/27 11:04:40;;;;;;;12.35;6.55;;;;;;;9.91;54.91;101966.00;5011434;28;20474;-74
2022/01/27 11:07:13;;;;;;;11.30;6.55;;;;;;;9.95;54.89;101962.19;5011360;28;20081;-74
2022/01/27 11:09:44;;;;;;;13.02;6.40;;;;;;;9.95;55.00;101958.59;5005827;28;20062;-74
2022/01/27 11:12:18;;;;;;;13.18;7.47;;;;;;;9.98;55.09;101956.59;4991445;28;20054;-74
2022/01/27 11:14:50;;;;;;;13.15;7.35;;;;;;;9.98;55.09;101962.03;4985057;28;20102;-74
2022/01/27 11:17:21;;;;;;;11.60;7.00;;;;;;;10.01;55.04;101958.31;4992240;28;20105;-74
2022/01/27 11:27:30;;;;;;;12.32;6.97;;;;;;;10.07;55.12;101934.47;4991938;28;20134;-74
2022/01/27 11:30:42;;;;;;;11.90;6.60;;;;;;;10.09;55.45;101945.25;4988143;28;20468;-74
2022/01/27 11:33:13;;;;;;;10.10;6.03;;;;;;;10.06;55.36;101942.69;4991948;28;20478;-74
2022/01/27 11:36:07;;;;;;;11.38;6.47;;;;;;;10.10;55.68;101937.06;4978641;28;20054;-74
2022/01/27 11:38:34;;;;;;;13.13;6.70;;;;;;;10.10;55.27;101931.63;4991983;28;20050;-74
2022/01/27 11:41:01;;;;;;;11.88;6.78;;;;;;;10.12;55.13;101931.56;4992929;28;20050;-74
2022/01/27 11:43:35;;;;;;;12.77;6.95;;;;;;;10.17;55.45;101930.41;4992501;28;20184;-74
2022/01/27 11:46:22;;;;;;;11.15;6.60;;;;;;;10.18;55.39;101924.03;4978788;28;20058;-74
2022/01/27 11:48:49;;;;;;;12.00;7.25;;;;;;;10.15;55.21;101928.69;4991752;28;20644;-74
2022/01/27 11:51:15;;;;;;;12.38;7.43;;;;;;;10.15;55.68;101926.84;4988807;28;20049;-75
2022/01/27 11:53:44;;;;;;;13.32;7.10;;;;;;;10.22;55.42;101920.19;4991443;28;20880;-75
2022/01/27 11:56:23;;;;;;;12.23;6.97;;;;;;;10.22;55.46;101924.75;4990463;28;20650;-76
2022/01/27 11:58:52;;;;;;;11.60;6.90;;;;;;;10.21;55.38;101914.88;4990956;28;20157;-75
2022/01/27 12:01:26;;;;;;;12.38;7.15;;;;;;;10.25;55.72;101925.50;5008790;28;20081;-74
2022/01/27 12:04:05;;;;;;;13.75;6.95;;;;;;;10.24;56.09;101912.88;5011730;28;20052;-74
2022/01/27 12:06:36;;;;;;;11.80;6.93;;;;;;;10.25;55.40;101909.19;5010650;28;20050;-74
2022/01/27 12:09:18;;;;;;;13.00;6.80;;;;;;;10.27;55.56;101914.56;5015247;28;20130;-76
2022/01/27 12:11:51;;;;;;;11.85;7.03;;;;;;;10.26;55.37;101901.94;5017536;28;20060;-74
2022/01/27 12:14:25;;;;;;;12.05;7.00;;;;;;;10.27;55.54;101904.59;5014878;28;20089;-74
2022/01/27 12:17:11;;;;;;;11.73;6.70;;;;;;;10.27;55.48;101901.00;5011465;28;20085;-74
2022/01/27 12:19:55;;;;;;;11.05;6.80;;;;;;;10.29;56.10;101901.81;5004514;28;20056;-74
2022/01/27 12:22:43;;;;;;;11.50;6.70;;;;;;;10.29;56.02;101897.22;5011574;28;20058;-74
2022/01/27 12:25:10;;;;;;;10.43;5.70;;;;;;;10.27;55.85;101891.00;5007091;28;20393;-74
2022/01/27 12:27:37;;;;;;;10.80;6.13;;;;;;;10.29;55.68;101894.50;5010872;28;20081;-74
2022/01/27 12:30:18;;;;;;;11.13;6.65;;;;;;;10.32;55.86;101903.47;5007685;28;20104;-75
2022/01/27 12:32:45;;;;;;;11.05;6.50;;;;;;;10.33;55.78;101888.94;5009547;28;20137;-75
2022/01/27 12:35:17;;;;;;;9.80;5.53;;;;;;;10.37;56.11;101896.88;5009484;28;20891;-75
2022/01/27 12:37:46;;;;;;;10.55;5.80;;;;;;;10.40;55.90;101887.69;5011550;28;20049;-75